createdAt,value
2023-05-07T00:00:43.575Z,95640.03
2023-05-07T00:03:30.093Z,95636.84
2023-05-07T00:06:16.333Z,95628.88
2023-05-07T00:09:02.285Z,95629.53
2023-05-07T00:11:48.330Z,95638.84
2023-05-07T00:14:34.100Z,95631.66
2023-05-07T00:17:20.011Z,95633.56
2023-05-07T00:20:06.291Z,95638.28
2023-05-07T00:22:52.079Z,95636.53
2023-05-07T00:25:37.836Z,95632.91
2023-05-07T00:28:23.691Z,95638.53
2023-05-07T00:31:09.473Z,95642.38
2023-05-07T00:33:55.384Z,95637.09
2023-05-07T00:36:41.408Z,95640.97
2023-05-07T00:39:27.534Z,95637.31
2023-05-07T00:42:13.358Z,95637.78
2023-05-07T00:44:59.622Z,95645.47
2023-05-07T00:47:46.123Z,95630.44
2023-05-07T00:50:32.966Z,95638.59
2023-05-07T00:53:19.009Z,95637.03
2023-05-07T00:56:05.717Z,95642.47
2023-05-07T00:58:51.405Z,95632.41
2023-05-07T01:01:38.039Z,95644.88
2023-05-07T01:04:23.986Z,95645.53
2023-05-07T01:07:10.870Z,95642.34
2023-05-07T01:09:57.146Z,95636.59
2023-05-07T01:12:43.665Z,95646.69
2023-05-07T01:15:29.856Z,95652.78
2023-05-07T01:18:16.346Z,95644.47
2023-05-07T01:21:05.825Z,95647.84
2023-05-07T01:23:52.025Z,95650.75
2023-05-07T01:26:38.223Z,95655.22
2023-05-07T01:29:24.088Z,95648.81
2023-05-07T01:32:10.387Z,95645.03
2023-05-07T01:34:56.879Z,95648.53
2023-05-07T01:37:43.159Z,95633.72
2023-05-07T01:40:29.284Z,95641.22
2023-05-07T01:43:15.545Z,95639.47
2023-05-07T01:46:02.772Z,95641.69
2023-05-07T01:48:49.550Z,95635.47
2023-05-07T01:51:36.110Z,95640.88
2023-05-07T01:54:28.716Z,95630.84
2023-05-07T01:57:17.021Z,95632.94
2023-05-07T02:00:07.348Z,95619.84
2023-05-07T02:03:01.646Z,95621.09
2023-05-07T02:06:04.499Z,95618.59
2023-05-07T02:08:56.790Z,95620.81
2023-05-07T02:11:43.117Z,95628.78
2023-05-07T02:14:29.124Z,95619.38
2023-05-07T02:17:15.218Z,95630.56
2023-05-07T02:20:01.265Z,95624.66
2023-05-07T02:22:47.100Z,95622.25
2023-05-07T02:25:32.857Z,95622.09
2023-05-07T02:28:19.082Z,95613.50
2023-05-07T02:31:10.651Z,95607.09
2023-05-07T02:33:57.288Z,95611.41
2023-05-07T02:36:44.033Z,95619.06
2023-05-07T02:39:35.985Z,95616.50
2023-05-07T02:42:22.133Z,95611.06
2023-05-07T02:45:08.710Z,95612.81
2023-05-07T02:47:54.954Z,95618.25
2023-05-07T02:50:40.828Z,95610.25
2023-05-07T02:53:27.548Z,95612.69
2023-05-07T02:56:13.484Z,95626.53
2023-05-07T02:58:59.620Z,95627.66
2023-05-07T03:01:50.492Z,95636.47
2023-05-07T03:04:36.814Z,95624.16
2023-05-07T03:07:22.985Z,95640.28
2023-05-07T03:10:09.555Z,95644.13
2023-05-07T03:12:55.642Z,95646.34
2023-05-07T03:15:41.809Z,95648.56
2023-05-07T03:18:27.654Z,95635.19
2023-05-07T03:21:14.179Z,95651.47
2023-05-07T03:24:00.691Z,95648.25
2023-05-07T03:26:46.764Z,95648.88
2023-05-07T03:29:33.031Z,95661.81
2023-05-07T03:32:20.211Z,95648.09
2023-05-07T03:35:06.820Z,95655.91
2023-05-07T03:37:53.178Z,95655.75
2023-05-07T03:40:41.115Z,95650.81
2023-05-07T03:43:27.047Z,95647.47
2023-05-07T03:46:20.936Z,95666.09
2023-05-07T03:49:09.440Z,95661.66
2023-05-07T03:51:55.524Z,95668.69
2023-05-07T03:54:42.545Z,95660.84
2023-05-07T03:57:30.692Z,95671.06
2023-05-07T04:00:18.210Z,95664.84
2023-05-07T04:03:07.126Z,95673.47
2023-05-07T04:05:53.430Z,95672.69
2023-05-07T04:08:40.050Z,95678.25
2023-05-07T04:11:28.074Z,95683.66
2023-05-07T04:14:14.832Z,95693.09
2023-05-07T04:17:01.002Z,95685.56
2023-05-07T04:19:47.947Z,95687.50
2023-05-07T04:22:34.709Z,95695.66
2023-05-07T04:25:22.962Z,95691.34
2023-05-07T04:28:09.235Z,95695.34
2023-05-07T04:30:56.003Z,95699.00
2023-05-07T04:33:42.190Z,95713.69
2023-05-07T04:36:31.921Z,95700.59
2023-05-07T04:39:25.321Z,95717.84
2023-05-07T04:42:16.698Z,95721.69
2023-05-07T04:45:03.613Z,95724.22
2023-05-07T04:47:52.807Z,95722.31
2023-05-07T04:50:39.635Z,95699.63
2023-05-07T04:53:26.759Z,95717.06
2023-05-07T04:56:14.088Z,95718.19
2023-05-07T04:59:02.404Z,95726.50
2023-05-07T05:01:49.753Z,95702.06
2023-05-07T05:04:38.848Z,95725.22
2023-05-07T05:07:26.218Z,95731.31
2023-05-07T05:10:13.101Z,95719.16
2023-05-07T05:13:03.169Z,95721.75
2023-05-07T05:15:51.032Z,95731.94
2023-05-07T05:18:37.220Z,95733.53
2023-05-07T05:21:23.445Z,95739.75
2023-05-07T05:24:13.160Z,95736.75
2023-05-07T05:27:02.341Z,95732.91
2023-05-07T05:29:50.089Z,95739.31
2023-05-07T05:32:36.336Z,95737.84
2023-05-07T05:35:22.187Z,95726.22
2023-05-07T05:38:09.162Z,95730.97
2023-05-07T05:40:56.638Z,95730.34
2023-05-07T05:43:42.711Z,95730.19
2023-05-07T05:46:31.786Z,95735.44
2023-05-07T05:49:18.548Z,95721.88
2023-05-07T05:52:05.325Z,95729.06
2023-05-07T05:54:52.052Z,95727.16
2023-05-07T05:57:39.332Z,95718.34
2023-05-07T06:00:25.815Z,95710.19
2023-05-07T06:03:19.344Z,95721.22
2023-05-07T06:06:06.203Z,95716.88
2023-05-07T06:08:52.646Z,95728.19
2023-05-07T06:11:44.851Z,95719.09
2023-05-07T06:14:32.172Z,95721.63
2023-05-07T06:17:20.126Z,95717.13
2023-05-07T06:20:10.106Z,95714.25
2023-05-07T06:22:56.527Z,95719.19
2023-05-07T06:25:42.347Z,95706.22
2023-05-07T06:28:28.800Z,95704.91
2023-05-07T06:31:21.925Z,95708.09
2023-05-07T06:34:16.480Z,95698.34
2023-05-07T06:37:02.620Z,95687.78
2023-05-07T06:40:14.887Z,95690.44
2023-05-07T06:43:01.798Z,95695.06
2023-05-07T06:46:02.134Z,95695.19
2023-05-07T06:48:48.190Z,95693.91
2023-05-07T06:51:34.883Z,95694.16
2023-05-07T06:54:28.164Z,95692.38
2023-05-07T06:57:14.272Z,95692.84
2023-05-07T07:00:00.848Z,95689.28
2023-05-07T07:02:46.822Z,95692.72
2023-05-07T07:05:35.087Z,95682.78
2023-05-07T07:08:22.553Z,95689.16
2023-05-07T07:11:09.617Z,95688.63
2023-05-07T07:13:55.794Z,95683.44
2023-05-07T07:16:42.129Z,95684.50
2023-05-07T07:19:28.036Z,95679.19
2023-05-07T07:22:15.253Z,95683.31
2023-05-07T07:25:01.654Z,95679.00
2023-05-07T07:27:49.032Z,95682.00
2023-05-07T07:30:36.284Z,95688.97
2023-05-07T07:33:22.360Z,95670.56
2023-05-07T07:36:09.725Z,95670.16
2023-05-07T07:38:56.694Z,95674.72
2023-05-07T07:41:42.972Z,95669.06
2023-05-07T07:44:29.577Z,95679.53
2023-05-07T07:47:19.955Z,95676.13
2023-05-07T07:50:08.909Z,95672.06
2023-05-07T07:52:55.243Z,95672.31
2023-05-07T07:55:41.893Z,95669.13
2023-05-07T07:58:30.351Z,95666.78
2023-05-07T08:01:18.327Z,95674.84
2023-05-07T08:04:06.725Z,95673.50
2023-05-07T08:06:57.275Z,95670.53
2023-05-07T08:09:44.267Z,95676.34
2023-05-07T08:12:31.271Z,95671.03
2023-05-07T08:15:21.435Z,95673.75
2023-05-07T08:18:08.829Z,95671.47
2023-05-07T08:20:56.562Z,95663.16
2023-05-07T08:23:45.932Z,95665.66
2023-05-07T08:26:35.289Z,95660.53
2023-05-07T08:29:23.694Z,95668.94
2023-05-07T08:32:09.622Z,95667.09
2023-05-07T08:34:56.068Z,95654.81
2023-05-07T08:37:41.983Z,95666.03
2023-05-07T08:40:29.030Z,95660.78
2023-05-07T08:43:18.853Z,95654.75
2023-05-07T08:46:06.585Z,95655.88
2023-05-07T08:48:56.539Z,95650.59
2023-05-07T08:51:42.909Z,95643.75
2023-05-07T08:54:30.335Z,95634.47
2023-05-07T08:57:16.704Z,95640.22
2023-05-07T09:00:05.036Z,95643.59
2023-05-07T09:02:51.377Z,95637.44
2023-05-07T09:05:37.953Z,95634.97
2023-05-07T09:08:28.275Z,95629.34
2023-05-07T09:11:16.867Z,95631.91
2023-05-07T09:14:03.770Z,95628.66
2023-05-07T09:16:55.177Z,95630.09
2023-05-07T09:19:45.705Z,95620.88
2023-05-07T09:22:35.095Z,95624.94
2023-05-07T09:25:32.660Z,95608.69
2023-05-07T09:28:23.145Z,95619.88
2023-05-07T09:31:10.619Z,95630.19
2023-05-07T09:33:57.283Z,95626.91
2023-05-07T09:36:46.219Z,95626.63
2023-05-07T09:39:45.484Z,95621.31
2023-05-07T09:42:32.814Z,95617.94
2023-05-07T09:45:31.476Z,95621.72
2023-05-07T09:48:18.637Z,95607.38
2023-05-07T09:51:13.945Z,95604.06
2023-05-07T09:54:04.486Z,95610.41
2023-05-07T09:56:53.909Z,95610.63
2023-05-07T09:59:45.192Z,95602.19
2023-05-07T10:02:36.366Z,95597.25
2023-05-07T10:05:23.430Z,95585.66
2023-05-07T10:08:11.396Z,95590.16
2023-05-07T10:11:00.900Z,95587.91
2023-05-07T10:13:49.283Z,95580.22
2023-05-07T10:16:39.761Z,95577.69
2023-05-07T10:19:30.928Z,95585.31
2023-05-07T10:22:17.943Z,95576.09
2023-05-07T10:25:09.153Z,95578.56
2023-05-07T10:27:56.825Z,95573.63
2023-05-07T10:31:17.082Z,95573.03
2023-05-07T10:34:12.722Z,95572.78
2023-05-07T10:36:59.528Z,95561.16
2023-05-07T10:39:45.695Z,95555.78
2023-05-07T10:42:31.807Z,95553.97
2023-05-07T10:45:18.441Z,95540.31
2023-05-07T10:48:28.840Z,95552.22
2023-05-07T10:51:22.054Z,95548.50
2023-05-07T10:54:16.694Z,95551.78
2023-05-07T10:57:32.833Z,95544.91
2023-05-07T11:00:38.950Z,95541.16
2023-05-07T11:03:34.059Z,95546.00
2023-05-07T11:06:24.326Z,95538.31
2023-05-07T11:09:18.274Z,95543.16
2023-05-07T11:12:14.126Z,95534.63
2023-05-07T11:15:10.796Z,95548.97
2023-05-07T11:18:00.505Z,95547.50
2023-05-07T11:20:55.851Z,95547.22
2023-05-07T11:23:52.202Z,95550.84
2023-05-07T11:26:51.195Z,95547.00
2023-05-07T11:29:39.716Z,95532.47
2023-05-07T11:32:33.240Z,95532.94
2023-05-07T11:35:24.209Z,95535.34
2023-05-07T11:38:10.762Z,95533.75
2023-05-07T11:41:03.562Z,95535.72
2023-05-07T11:44:01.124Z,95525.06
2023-05-07T11:46:47.369Z,95536.94
2023-05-07T11:49:33.244Z,95532.16
2023-05-07T11:52:20.393Z,95526.59
2023-05-07T11:55:06.356Z,95522.59
2023-05-07T11:57:52.580Z,95523.31
2023-05-07T12:00:38.720Z,95532.72
2023-05-07T12:03:24.613Z,95523.13
2023-05-07T12:06:12.360Z,95527.00
2023-05-07T12:08:58.549Z,95521.81
2023-05-07T12:11:47.390Z,95521.81
2023-05-07T12:14:33.809Z,95530.56
2023-05-07T12:17:19.981Z,95520.31
2023-05-07T12:20:07.167Z,95509.59
2023-05-07T12:22:53.377Z,95509.28
2023-05-07T12:25:40.962Z,95508.00
2023-05-07T12:28:26.902Z,95507.56
2023-05-07T12:31:12.762Z,95510.91
2023-05-07T12:34:01.952Z,95504.78
2023-05-07T12:36:49.436Z,95500.72
2023-05-07T12:39:35.428Z,95490.16
2023-05-07T12:42:27.180Z,95491.81
2023-05-07T12:45:17.434Z,95483.56
2023-05-07T12:48:04.154Z,95479.84
2023-05-07T12:51:13.457Z,95480.13
2023-05-07T12:53:59.576Z,95482.38
2023-05-07T12:56:45.676Z,95475.47
2023-05-07T12:59:35.236Z,95466.25
2023-05-07T13:02:21.272Z,95464.31
2023-05-07T13:05:08.180Z,95461.94
2023-05-07T13:07:57.394Z,95463.66
2023-05-07T13:10:43.426Z,95450.91
2023-05-07T13:13:32.365Z,95454.13
2023-05-07T13:19:08.171Z,95438.31
2023-05-07T13:21:54.176Z,95438.56
2023-05-07T13:24:42.785Z,95437.00
2023-05-07T13:27:28.440Z,95431.41
2023-05-07T13:30:14.653Z,95439.44
2023-05-07T13:33:01.091Z,95422.94
2023-05-07T13:35:47.226Z,95425.53
2023-05-07T13:38:33.250Z,95418.19
2023-05-07T13:41:19.709Z,95421.59
2023-05-07T13:44:06.144Z,95420.91
2023-05-07T13:46:52.314Z,95424.38
2023-05-07T13:49:38.400Z,95410.88
2023-05-07T13:52:24.530Z,95426.09
2023-05-07T13:55:11.890Z,95420.00
2023-05-07T13:57:58.875Z,95425.94
2023-05-07T14:00:44.793Z,95414.22
2023-05-07T14:03:32.921Z,95420.78
2023-05-07T14:06:19.033Z,95411.28
2023-05-07T14:09:05.158Z,95405.34
2023-05-07T14:11:52.409Z,95410.69
2023-05-07T14:14:38.151Z,95419.16
2023-05-07T14:17:26.450Z,95409.09
2023-05-07T14:20:13.814Z,95412.09
2023-05-07T14:23:00.164Z,95415.97
2023-05-07T14:25:47.149Z,95415.97
2023-05-07T14:28:33.226Z,95421.88
2023-05-07T14:31:19.209Z,95418.59
2023-05-07T14:34:07.151Z,95410.56
2023-05-07T14:36:53.505Z,95421.88
2023-05-07T14:39:39.364Z,95416.09
2023-05-07T14:42:25.324Z,95415.91
2023-05-07T14:45:12.124Z,95416.91
2023-05-07T14:47:58.135Z,95417.19
2023-05-07T14:50:44.235Z,95407.88
2023-05-07T14:53:30.388Z,95408.47
2023-05-07T14:56:16.318Z,95416.63
2023-05-07T14:59:04.250Z,95412.31
2023-05-07T15:01:50.266Z,95396.88
2023-05-07T15:04:35.992Z,95407.25
2023-05-07T15:07:22.123Z,95409.22
2023-05-07T15:10:09.864Z,95410.88
2023-05-07T15:12:55.718Z,95412.53
2023-05-07T15:15:43.050Z,95407.53
2023-05-07T15:18:29.243Z,95409.38
2023-05-07T15:21:15.000Z,95413.13
2023-05-07T15:24:02.362Z,95403.31
2023-05-07T15:26:48.145Z,95413.03
2023-05-07T15:29:34.116Z,95413.66
2023-05-07T15:32:21.476Z,95409.84
2023-05-07T15:35:08.857Z,95408.81
2023-05-07T15:37:55.102Z,95406.94
2023-05-07T15:40:43.865Z,95416.16
2023-05-07T15:43:29.998Z,95407.03
2023-05-07T15:46:25.422Z,95396.16
2023-05-07T15:49:11.916Z,95403.69
2023-05-07T15:51:58.199Z,95410.66
2023-05-07T15:54:44.390Z,95414.03
2023-05-07T15:57:38.611Z,95415.59
2023-05-07T16:00:46.106Z,95407.59
2023-05-07T16:03:38.903Z,95409.97
2023-05-07T16:10:12.624Z,95409.00
2023-05-07T16:13:04.960Z,95398.59
2023-05-07T16:15:56.653Z,95412.44
2023-05-07T16:18:42.431Z,95406.94
2023-05-07T16:21:28.459Z,95411.63
2023-05-07T16:24:15.918Z,95403.09
2023-05-07T16:27:02.064Z,95401.69
2023-05-07T16:29:48.129Z,95404.50
2023-05-07T16:32:34.827Z,95408.00
2023-05-07T16:35:20.785Z,95408.31
2023-05-07T16:38:10.321Z,95410.56
2023-05-07T16:40:58.180Z,95404.81
2023-05-07T16:43:44.398Z,95410.53
2023-05-07T16:46:30.369Z,95404.75
2023-05-07T16:49:16.345Z,95410.81
2023-05-07T16:52:02.087Z,95405.47
2023-05-07T16:54:47.771Z,95412.31
2023-05-07T16:57:33.787Z,95411.22
2023-05-07T17:00:20.019Z,95407.78
2023-05-07T17:03:06.427Z,95417.81
2023-05-07T17:05:53.013Z,95410.78
2023-05-07T17:08:40.588Z,95421.91
2023-05-07T17:11:31.182Z,95427.53
2023-05-07T17:14:17.398Z,95430.38
2023-05-07T17:17:03.609Z,95415.09
2023-05-07T17:19:49.617Z,95436.44
2023-05-07T17:25:39.100Z,95447.59
2023-05-07T17:28:25.084Z,95449.59
2023-05-07T17:31:11.371Z,95453.94
2023-05-07T17:33:59.146Z,95464.25
2023-05-07T17:36:48.838Z,95471.75
2023-05-07T17:48:34.568Z,95478.13
2023-05-07T17:51:20.480Z,95470.25
2023-05-07T17:54:06.511Z,95473.78
2023-05-07T17:56:52.248Z,95476.19
2023-05-07T18:04:03.547Z,95476.97
2023-05-07T18:06:49.276Z,95470.66
2023-05-07T18:14:04.652Z,95491.13
2023-05-07T18:16:50.718Z,95493.84
2023-05-07T18:19:40.747Z,95495.81
2023-05-07T18:23:06.676Z,95505.25
2023-05-07T18:26:17.740Z,95501.31
2023-05-07T18:30:29.744Z,95512.31
2023-05-07T18:33:16.028Z,95516.63
2023-05-07T18:36:02.075Z,95531.19
2023-05-07T18:40:02.007Z,95537.44
2023-05-07T18:42:47.803Z,95533.09
2023-05-07T18:45:35.000Z,95541.28
2023-05-07T18:53:30.604Z,95560.91
2023-05-07T18:56:55.671Z,95564.03
2023-05-07T18:59:41.750Z,95572.25
2023-05-07T19:02:27.452Z,95561.59
2023-05-07T19:05:13.553Z,95570.59
2023-05-07T19:08:37.048Z,95576.47
2023-05-07T19:11:23.890Z,95581.94
2023-05-07T19:14:11.148Z,95579.50
2023-05-07T19:16:57.101Z,95592.88
2023-05-07T19:24:39.891Z,95596.56
2023-05-07T19:38:08.254Z,95591.19
2023-05-07T19:40:55.471Z,95597.44
2023-05-07T19:43:41.879Z,95608.00
2023-05-07T19:46:28.790Z,95610.34
2023-05-07T19:49:15.023Z,95607.91
2023-05-07T19:52:01.282Z,95604.69
2023-05-07T19:54:48.026Z,95612.88
2023-05-07T19:57:33.930Z,95603.72
2023-05-07T20:00:21.994Z,95610.75
2023-05-07T20:03:08.481Z,95616.97
2023-05-07T20:05:54.526Z,95613.72
2023-05-07T20:08:40.753Z,95617.66
2023-05-07T20:11:29.304Z,95614.06
2023-05-07T20:14:15.577Z,95617.53
2023-05-07T20:17:01.680Z,95628.03
2023-05-07T20:19:47.768Z,95634.28
2023-05-07T20:22:33.514Z,95629.03
2023-05-07T20:25:32.350Z,95627.38
2023-05-07T20:28:18.669Z,95630.38
2023-05-07T20:31:04.847Z,95627.94
2023-05-07T20:33:50.869Z,95636.44
2023-05-07T20:36:37.807Z,95636.34
2023-05-07T20:39:24.435Z,95649.25
2023-05-07T20:42:10.462Z,95644.88
2023-05-07T20:45:02.748Z,95651.06
2023-05-07T20:47:58.036Z,95655.69
2023-05-07T20:50:44.030Z,95652.94
2023-05-07T20:53:33.248Z,95655.22
2023-05-07T20:56:19.357Z,95658.75
2023-05-07T20:59:05.737Z,95658.63
2023-05-07T21:01:51.849Z,95656.19
2023-05-07T21:04:37.907Z,95671.06
2023-05-07T21:07:23.774Z,95663.13
2023-05-07T21:10:09.909Z,95671.69
2023-05-07T21:12:55.755Z,95670.75
2023-05-07T21:15:46.194Z,95673.44
2023-05-07T21:18:33.840Z,95669.69
2023-05-07T21:21:19.700Z,95681.81
2023-05-07T21:24:06.258Z,95678.94
2023-05-07T21:26:56.277Z,95688.31
2023-05-07T21:29:42.451Z,95689.03
2023-05-07T21:32:28.342Z,95683.41
2023-05-07T21:35:14.209Z,95680.97
2023-05-07T21:38:02.583Z,95694.22
2023-05-07T21:40:50.245Z,95697.28
2023-05-07T21:43:36.365Z,95692.06
2023-05-07T21:46:22.191Z,95697.84
2023-05-07T21:49:09.367Z,95694.59
2023-05-07T21:51:55.269Z,95700.00
2023-05-07T21:54:41.270Z,95706.13
2023-05-07T21:57:27.029Z,95704.47
2023-05-07T22:00:13.699Z,95696.53
2023-05-07T22:03:00.090Z,95692.56
2023-05-07T22:05:46.909Z,95693.22
2023-05-07T22:08:33.758Z,95677.38
2023-05-07T22:11:19.567Z,95692.16
2023-05-07T22:14:06.266Z,95691.97
2023-05-07T22:16:52.274Z,95689.78
2023-05-07T22:19:38.591Z,95698.28
2023-05-07T22:22:24.642Z,95687.94
2023-05-07T22:25:10.818Z,95684.25
2023-05-07T22:27:57.098Z,95681.78
2023-05-07T22:30:43.443Z,95684.81
2023-05-07T22:33:29.465Z,95689.13
2023-05-07T22:36:15.449Z,95667.78
2023-05-07T22:39:02.933Z,95686.19
2023-05-07T22:41:50.137Z,95694.06
2023-05-07T22:44:35.898Z,95686.13
2023-05-07T22:47:22.775Z,95689.22
2023-05-07T22:50:08.960Z,95686.66
2023-05-07T22:52:55.172Z,95689.75
2023-05-07T22:55:41.352Z,95684.19
2023-05-07T22:58:27.767Z,95680.13
2023-05-07T23:01:14.926Z,95681.63
2023-05-07T23:04:00.678Z,95683.09
2023-05-07T23:06:46.696Z,95674.78
2023-05-07T23:09:33.026Z,95683.72
2023-05-07T23:12:18.841Z,95680.44
2023-05-07T23:15:05.525Z,95679.56
2023-05-07T23:17:51.424Z,95672.41
2023-05-07T23:20:37.446Z,95678.56
2023-05-07T23:23:33.795Z,95670.63
2023-05-07T23:26:20.323Z,95666.31
2023-05-07T23:29:06.302Z,95674.50
2023-05-07T23:31:52.242Z,95668.13
2023-05-07T23:34:38.214Z,95668.88
2023-05-07T23:37:24.757Z,95672.28
2023-05-07T23:40:10.979Z,95669.00
2023-05-07T23:42:58.742Z,95669.63
2023-05-07T23:45:44.736Z,95676.91
2023-05-07T23:48:30.676Z,95666.69
2023-05-07T23:51:16.943Z,95677.63
2023-05-07T23:54:03.010Z,95672.84
2023-05-07T23:56:49.217Z,95669.66
2023-05-07T23:59:35.187Z,95670.81
